Orel 5 — EMFH — position and weather

sailwx.info

Track history (hours):
 
Tides and Currents Weather Stations Pressure Air Temp Water Temp Dewpoint Dewpoint Depression Visibility Wind Speed Wind Dir Waves Ship Positions

Orel 5

Last reported at 2014-Sep-17 07:07 UTC. Time now 2014-Sep-17 13:39 UTC.
Position N 47°57' E 035°07'.

Length 108 m; draft 3.5 m.

Type: Cargo ship. MMSI: 272059000.

Date/timePositionNaut miles runAvg speedWind from/ knotsBaromVisibWave heightAir tempDewpointWater temp
2014-Sep-17 07:07N 47°57' E 035°07'4 7.8
2014-Sep-17 06:33N 47°52' E 035°06'1 0.9
2014-Sep-17 05:33N 47°52' E 035°05'5 5.5
2014-Sep-17 04:33N 47°47' E 035°09'146 3.5
2014-Sep-15 10:32N 46°32' E 032°06'8 7.9
2014-Sep-15 09:33N 46°34' E 031°55'  
2014-Sep-13 00:33N 40°58' E 028°60'7 6.8
2014-Sep-12 23:33N 40°53' E 028°54'5 2.1
2014-Sep-12 21:08N 40°48' E 028°53'0 0.7
2014-Sep-12 20:33N 40°48' E 028°53'1 0.7
2014-Sep-12 19:28N 40°49' E 028°54'1 1.5
2014-Sep-12 18:32N 40°50' E 028°54'7 6.9
2014-Sep-12 17:30N 40°50' E 028°44'  
Track history (hours):
 
Tides and Currents Weather Stations Pressure Air Temp Water Temp Dewpoint Dewpoint Depression Visibility Wind Speed Wind Dir Waves Ship Positions

Orel 5

Last reported at 2014-Sep-17 07:07 UTC. Time now 2014-Sep-17 13:39 UTC.
Position N 47°57' E 035°07'.

Length 108 m; draft 3.5 m.

Type: Cargo ship. MMSI: 272059000.

Date/timePositionNaut miles runAvg speedWind from/ knotsBaromVisibWave heightAir tempDewpointWater temp
2014-Sep-17 07:07N 47°57' E 035°07'4 7.8
2014-Sep-17 06:33N 47°52' E 035°06'1 0.9
2014-Sep-17 05:33N 47°52' E 035°05'5 5.5
2014-Sep-17 04:33N 47°47' E 035°09'146 3.5
2014-Sep-15 10:32N 46°32' E 032°06'8 7.9
2014-Sep-15 09:33N 46°34' E 031°55'  
2014-Sep-13 00:33N 40°58' E 028°60'7 6.8
2014-Sep-12 23:33N 40°53' E 028°54'5 2.1
2014-Sep-12 21:08N 40°48' E 028°53'0 0.7
2014-Sep-12 20:33N 40°48' E 028°53'1 0.7
2014-Sep-12 19:28N 40°49' E 028°54'1 1.5
2014-Sep-12 18:32N 40°50' E 028°54'7 6.9
2014-Sep-12 17:30N 40°50' E 028°44'  

Dump ship's entire track history